Main page
METAR-TAF:

METAR-TAF

Airports :

Gurayat Domestic Airport

Qurayyat, Saudi Arabia

latitude: 31-24N, longitude: 037-16E, elevation: 509 m

Current weather observation

The report was made 1 hour and 10 minutes ago, at 17:00 UTC
Wind 6 kt from the North/Northeast
Temperature 23°C
Humidity 33%
Pressure 1018 hPa
Visibility 10 km or more
no clouds below 1500 m and no cumulonimbus

METAR: OEGT 211700Z 03006KT CAVOK 23/06 Q1018 NOSIG

Time: 21:10 (18:10 UTC)

Forecast

The report was made 7 hours and 10 minutes ago, at 11:00 UTC
Forecast valid from 21 at 12 UTC to 22 at 18 UTC
Wind 10 kt from the North
Visibility 10 km or more
no clouds below 1500 m and no cumulonimbus
Becoming
from 21 at 22 UTC to 22 at 00 UTC
Wind 3 kt from variable directions

TAF: OEGT 211100Z 2112/2218 35010KT CAVOK BECMG 2122/2200 VRB03KT

Weather observations and forecasts of more than 4000 airports (METAR and TAF reports).

The available stations are represented by yellow and red dots on the map.

Hover mouse over dot to see the name of the station.

Then click to see weather observations and forecasts.

To change the map : click on the green buttons with a black cross to zoom in, on the green button with a dash to zoom out, or on the green arrows for adjacent maps.


METAR-TAF: